Time;durP1;ratioP1;P1;durP2;ratioP2;P2;SDS_P1;SDS_P2;PMS_P1;PMS_P2;Temp;Humidity;BMP_temperature;BMP_pressure;BME280_temperature;BME280_humidity;BME280_pressure;Samples;Min_cycle;Max_cycle;Signal;HPM_P1;HPM_P2
2022/05/07 00:02:14;;;;;;;8.70;5.85;;;;;;;14.51;58.76;102003.34;5010468;28;101965;-47
2022/05/07 00:04:47;;;;;;;8.68;6.10;;;;;;;14.50;59.12;101996.22;5009066;28;104364;-47
2022/05/07 00:07:13;;;;;;;8.20;5.97;;;;;;;14.51;58.95;101997.06;4990297;28;103886;-47
2022/05/07 00:09:41;;;;;;;7.57;5.63;;;;;;;14.50;58.44;101996.22;5021903;28;102204;-47
2022/05/07 00:12:09;;;;;;;7.70;6.03;;;;;;;14.49;58.85;101991.78;5012611;28;101978;-47
2022/05/07 00:14:39;;;;;;;6.70;5.55;;;;;;;14.50;59.10;101995.41;5012070;28;101976;-47
2022/05/07 00:19:53;;;;;;;7.05;5.70;;;;;;;14.49;58.96;102000.00;4991785;28;102036;-48
2022/05/07 00:22:34;;;;;;;8.57;5.93;;;;;;;14.49;58.92;101997.25;4995522;28;102021;-47
2022/05/07 00:25:02;;;;;;;7.70;5.95;;;;;;;14.49;58.81;101989.03;5014632;28;102438;-48
2022/05/07 00:27:30;;;;;;;8.45;5.97;;;;;;;14.48;59.08;101987.41;4998121;28;103925;-47
2022/05/07 00:29:59;;;;;;;7.60;5.80;;;;;;;14.48;58.91;101987.41;4994433;28;102504;-48
2022/05/07 00:32:30;;;;;;;7.50;5.80;;;;;;;14.49;59.01;101988.22;5013299;28;102226;-48
2022/05/07 00:34:58;;;;;;;7.78;6.07;;;;;;;14.48;59.14;101981.09;5015534;28;102363;-48
2022/05/07 00:37:26;;;;;;;10.57;6.15;;;;;;;14.48;59.27;101981.94;4995628;28;103648;-47
2022/05/07 00:39:54;;;;;;;8.10;5.68;;;;;;;14.48;59.09;101979.19;4994376;28;101966;-48
2022/05/07 00:42:21;;;;;;;7.30;5.70;;;;;;;14.49;58.99;101982.75;5010250;28;102533;-45
2022/05/07 00:44:49;;;;;;;8.13;6.43;;;;;;;14.48;59.09;101981.09;5014510;28;102844;-48
2022/05/07 00:47:21;;;;;;;7.45;6.00;;;;;;;14.48;59.11;101978.38;5013763;28;104279;-46
2022/05/07 00:49:52;;;;;;;8.30;6.18;;;;;;;14.48;58.98;101981.94;5013767;28;102503;-47
2022/05/07 00:52:23;;;;;;;8.02;5.97;;;;;;;14.47;59.24;101980.28;5000473;28;102289;-47
2022/05/07 00:54:52;;;;;;;7.82;6.22;;;;;;;14.48;58.99;101981.09;4995354;28;102448;-47
2022/05/07 00:57:21;;;;;;;7.25;5.72;;;;;;;14.48;59.20;101972.91;4993761;28;103954;-48
2022/05/07 00:59:48;;;;;;;7.65;5.45;;;;;;;14.48;59.12;101972.91;4994209;28;102367;-48
2022/05/07 01:02:21;;;;;;;8.52;5.47;;;;;;;14.47;59.31;101961.13;5000083;28;101926;-48
2022/05/07 01:05:00;;;;;;;7.88;5.40;;;;;;;14.46;59.38;101962.22;4996241;28;102462;-46
2022/05/07 01:07:26;;;;;;;8.13;5.70;;;;;;;14.48;59.21;101964.69;5013532;28;103916;-46
2022/05/07 01:09:58;;;;;;;9.25;6.13;;;;;;;14.47;58.99;101966.59;4997143;28;101804;-46
2022/05/07 01:12:29;;;;;;;8.00;6.18;;;;;;;14.47;59.12;101969.34;5003163;28;102222;-47
2022/05/07 01:15:00;;;;;;;7.57;6.07;;;;;;;14.47;59.18;101963.84;5002133;28;102069;-47
2022/05/07 01:17:30;;;;;;;7.93;6.53;;;;;;;14.46;59.24;101970.44;4996960;28;103924;-48
2022/05/07 01:19:58;;;;;;;7.00;5.95;;;;;;;14.47;59.47;101966.59;4993310;28;101970;-48
2022/05/07 01:22:28;;;;;;;6.95;5.88;;;;;;;14.47;59.18;101966.59;5009985;28;102577;-46
2022/05/07 01:25:04;;;;;;;6.63;5.50;;;;;;;14.47;59.32;101974.00;4997061;28;102583;-48
2022/05/07 01:27:33;;;;;;;7.50;6.03;;;;;;;14.46;59.25;101972.31;4993225;28;104328;-47
2022/05/07 01:30:01;;;;;;;8.23;5.93;;;;;;;14.47;59.38;101963.03;4994112;28;102408;-48
2022/05/07 01:32:27;;;;;;;7.35;5.90;;;;;;;14.46;59.35;101964.97;4995677;28;102701;-48
2022/05/07 01:35:07;;;;;;;7.35;6.10;;;;;;;14.45;59.35;101966.03;4999238;28;102576;-48
2022/05/07 01:37:36;;;;;;;7.15;5.60;;;;;;;14.46;59.49;101962.22;4999103;28;104149;-48
2022/05/07 01:40:06;;;;;;;7.57;5.57;;;;;;;14.45;59.32;101965.19;4993628;28;102302;-48
2022/05/07 01:42:34;;;;;;;8.48;5.85;;;;;;;14.46;59.19;101975.91;5004498;28;102515;-48
2022/05/07 01:45:01;;;;;;;7.75;6.00;;;;;;;14.45;59.30;101971.50;5008658;28;102670;-48
2022/05/07 01:50:18;;;;;;;7.50;6.03;;;;;;;14.45;59.61;101970.69;4993665;28;101899;-47
2022/05/07 01:52:52;;;;;;;7.68;5.97;;;;;;;14.45;59.43;101968.75;4992665;28;102584;-45
2022/05/07 01:55:21;;;;;;;8.27;6.18;;;;;;;14.45;59.58;101971.50;4999681;28;102005;-48
2022/05/07 01:57:49;;;;;;;7.60;5.82;;;;;;;14.44;59.70;101975.34;5012324;28;104020;-48
2022/05/07 02:00:16;;;;;;;7.45;6.20;;;;;;;14.45;59.71;101967.94;5004107;28;102693;-48
2022/05/07 02:02:51;;;;;;;6.35;5.30;;;;;;;14.43;59.31;101969.03;5001790;28;102538;-48
2022/05/07 02:05:17;;;;;;;8.52;5.90;;;;;;;14.44;59.64;101969.88;4993840;28;102416;-48
2022/05/07 02:07:44;;;;;;;7.15;5.82;;;;;;;14.44;59.48;101969.88;4992483;28;103858;-47
2022/05/07 02:10:12;;;;;;;8.07;5.85;;;;;;;14.44;59.41;101978.09;4996159;28;102314;-49
2022/05/07 02:12:39;;;;;;;7.00;5.60;;;;;;;14.43;59.57;101979.19;4998253;28;102329;-45
2022/05/07 02:15:07;;;;;;;7.82;5.85;;;;;;;14.43;59.56;101984.66;5008721;28;102434;-48
2022/05/07 02:17:39;;;;;;;6.75;5.45;;;;;;;14.43;59.34;101984.66;5011838;28;103705;-48
2022/05/07 02:20:08;;;;;;;6.72;5.78;;;;;;;14.43;59.66;101990.94;5010700;28;102321;-47
2022/05/07 02:22:35;;;;;;;7.00;5.68;;;;;;;14.42;59.62;101989.31;5011108;28;102281;-47
2022/05/07 02:25:02;;;;;;;6.93;5.82;;;;;;;14.43;59.71;101979.19;5005807;28;102324;-46
2022/05/07 02:27:34;;;;;;;7.15;6.07;;;;;;;14.43;59.96;101979.19;5011774;28;104009;-48
2022/05/07 02:30:01;;;;;;;7.72;5.93;;;;;;;14.43;59.60;101987.41;5011092;28;102197;-47
2022/05/07 02:32:28;;;;;;;6.63;5.53;;;;;;;14.42;59.64;101978.34;4995913;28;102115;-47
2022/05/07 02:34:54;;;;;;;6.75;5.18;;;;;;;14.42;59.80;101985.72;5013255;28;102309;-48
2022/05/07 02:37:23;;;;;;;8.05;6.22;;;;;;;14.42;59.82;101985.72;5011357;28;104009;-47
2022/05/07 02:39:51;;;;;;;7.45;6.05;;;;;;;14.42;59.53;101988.47;5010812;28;101961;-48
2022/05/07 02:45:07;;;;;;;6.50;5.82;;;;;;;14.41;59.91;101981.34;5012274;28;102474;-48
2022/05/07 02:47:40;;;;;;;7.50;6.22;;;;;;;14.42;59.65;101991.19;5011406;28;104022;-48
2022/05/07 02:50:12;;;;;;;7.38;5.60;;;;;;;14.41;59.93;101993.13;5011214;28;102162;-48
2022/05/07 02:52:39;;;;;;;6.57;5.30;;;;;;;14.42;59.66;101999.41;5002617;28;102288;-48
2022/05/07 02:55:07;;;;;;;7.93;5.75;;;;;;;14.41;59.79;102008.75;5012784;28;102359;-47
2022/05/07 02:57:45;;;;;;;6.40;5.72;;;;;;;14.42;59.80;102010.38;5011240;28;104013;-47
2022/05/07 03:00:16;;;;;;;6.72;5.63;;;;;;;14.41;60.04;102016.94;5009729;28;102450;-46
2022/05/07 03:02:43;;;;;;;7.68;5.30;;;;;;;14.41;60.08;102011.47;5002211;28;102034;-45
2022/05/07 03:05:09;;;;;;;6.65;5.70;;;;;;;14.40;59.77;102013.41;5012562;28;102300;-47
2022/05/07 03:07:36;;;;;;;8.55;6.15;;;;;;;14.41;60.06;102019.69;5011393;28;103855;-48
2022/05/07 03:10:03;;;;;;;7.45;5.57;;;;;;;14.41;60.08;102017.78;5003014;28;103130;-48
2022/05/07 03:12:30;;;;;;;7.32;5.70;;;;;;;14.40;59.72;102024.34;5003127;28;102285;-48
2022/05/07 03:15:04;;;;;;;8.15;5.70;;;;;;;14.41;59.86;102030.66;5007260;28;102629;-47
2022/05/07 03:17:34;;;;;;;6.70;5.55;;;;;;;14.41;59.87;102031.47;4997014;28;103987;-47
2022/05/07 03:20:06;;;;;;;8.10;6.10;;;;;;;14.41;59.98;102034.19;5007238;28;102501;-45
2022/05/07 03:22:36;;;;;;;6.60;5.82;;;;;;;14.41;60.08;102036.13;4991585;28;102237;-47
2022/05/07 03:25:03;;;;;;;6.15;5.55;;;;;;;14.41;59.99;102041.59;5006424;28;102316;-46
2022/05/07 03:27:38;;;;;;;6.22;5.43;;;;;;;14.42;59.99;102040.50;5005499;28;103959;-47
2022/05/07 03:30:07;;;;;;;6.88;5.70;;;;;;;14.41;60.12;102041.59;4992110;28;102159;-48
2022/05/07 03:32:51;;;;;;;8.02;6.03;;;;;;;14.42;60.14;102045.97;4990655;28;102569;-47
2022/05/07 03:35:19;;;;;;;6.47;5.38;;;;;;;14.41;60.17;102036.94;5008455;28;102399;-48
2022/05/07 03:37:46;;;;;;;8.43;6.25;;;;;;;14.42;59.91;102048.72;5009846;28;103877;-46
2022/05/07 03:40:15;;;;;;;7.22;6.07;;;;;;;14.42;60.11;102035.88;4991435;28;102061;-47
2022/05/07 03:42:54;;;;;;;8.20;6.40;;;;;;;14.42;60.29;102037.75;4992886;28;102024;-48
2022/05/07 03:45:20;;;;;;;6.55;5.70;;;;;;;14.44;59.84;102041.06;5008258;28;102408;-47
2022/05/07 03:47:53;;;;;;;7.55;6.10;;;;;;;14.43;59.98;102044.91;5009708;28;103676;-47
2022/05/07 03:50:23;;;;;;;6.63;5.72;;;;;;;14.45;60.28;102048.19;5004529;28;102532;-47
2022/05/07 03:55:44;;;;;;;8.77;6.38;;;;;;;14.46;59.91;102044.38;5001279;28;102575;-49
2022/05/07 03:58:17;;;;;;;6.95;5.90;;;;;;;14.45;59.99;102045.47;4990080;28;103915;-47
2022/05/07 04:00:45;;;;;;;8.13;5.95;;;;;;;14.46;59.39;102049.00;4991714;28;102295;-47
2022/05/07 04:03:25;;;;;;;10.60;6.63;;;;;;;14.46;59.81;102044.38;4990859;28;102114;-47
2022/05/07 04:05:55;;;;;;;7.18;5.88;;;;;;;14.46;59.75;102044.38;4999109;28;102233;-46
2022/05/07 04:08:21;;;;;;;;;;;;;;;14.47;59.66;102045.22;5002702;28;103875;-47
2022/05/07 04:10:55;;;;;;;8.98;5.88;;;;;;;14.48;59.54;102033.97;5011483;28;102318;-47
2022/05/07 04:13:29;;;;;;;7.80;5.90;;;;;;;14.48;59.47;102047.66;5006592;28;102256;-50
2022/05/07 04:15:55;;;;;;;6.57;5.60;;;;;;;14.49;59.48;102037.53;4995423;28;102307;-48
2022/05/07 04:18:27;;;;;;;6.25;5.30;;;;;;;14.48;59.23;102039.44;4994230;28;103404;-47
2022/05/07 04:20:57;;;;;;;7.97;5.20;;;;;;;14.49;59.39;102037.53;5011288;28;101763;-47
2022/05/07 04:23:23;;;;;;;7.05;4.95;;;;;;;14.50;59.24;102044.72;5008517;28;102280;-48
2022/05/07 04:25:50;;;;;;;7.40;4.95;;;;;;;14.50;59.23;102045.53;5008122;28;102444;-48
2022/05/07 04:28:16;;;;;;;5.47;4.55;;;;;;;14.51;59.29;102047.19;5006642;28;103981;-46
2022/05/07 04:30:49;;;;;;;7.07;4.57;;;;;;;14.52;59.37;102054.28;4991344;28;101846;-48
2022/05/07 04:33:22;;;;;;;6.00;4.32;;;;;;;14.51;59.34;102049.91;4991365;28;102113;-48
2022/05/07 04:35:52;;;;;;;5.22;4.05;;;;;;;14.53;59.18;102055.94;4998704;28;102236;-45
2022/05/07 04:38:37;;;;;;;4.75;3.83;;;;;;;14.55;59.04;102064.72;5007384;28;103885;-48
2022/05/07 04:41:05;;;;;;;3.58;3.25;;;;;;;14.54;59.08;102063.09;5010744;28;102171;-48
2022/05/07 04:43:32;;;;;;;4.82;3.55;;;;;;;14.57;59.04;102061.72;5008048;28;102737;-47
2022/05/07 04:45:58;;;;;;;5.07;3.22;;;;;;;14.58;59.50;102064.19;5009215;28;102218;-47
2022/05/07 04:48:31;;;;;;;3.33;3.03;;;;;;;14.59;59.06;102065.03;4993359;28;103970;-47
2022/05/07 04:50:58;;;;;;;4.22;3.22;;;;;;;14.60;59.19;102062.00;4990942;28;102023;-47
2022/05/07 04:53:26;;;;;;;3.70;3.15;;;;;;;14.62;59.07;102070.78;4992086;28;102659;-49
2022/05/07 04:55:56;;;;;;;3.85;3.03;;;;;;;14.62;59.11;102062.56;5005398;28;102416;-49
2022/05/07 04:58:32;;;;;;;4.43;3.20;;;;;;;14.63;58.84;102068.88;5009909;28;104236;-47
2022/05/07 05:00:59;;;;;;;6.40;3.47;;;;;;;14.66;59.02;102062.88;5001883;28;102684;-48
2022/05/07 05:03:34;;;;;;;6.35;3.38;;;;;;;14.68;58.83;102062.59;4991296;28;101884;-48
2022/05/07 05:06:03;;;;;;;3.67;2.92;;;;;;;14.70;58.91;102071.38;4991795;28;102407;-46
2022/05/07 05:08:32;;;;;;;6.90;3.33;;;;;;;14.72;58.78;102074.69;4989824;28;104018;-48
2022/05/07 05:11:03;;;;;;;3.88;3.30;;;;;;;14.73;58.74;102068.94;4996340;28;102544;-49
2022/05/07 05:13:31;;;;;;;5.10;2.85;;;;;;;14.74;58.59;102061.53;4998582;28;102258;-47
2022/05/07 05:16:01;;;;;;;4.38;3.15;;;;;;;14.75;58.57;102074.13;5000874;28;102282;-47
2022/05/07 05:18:39;;;;;;;6.00;3.28;;;;;;;14.77;58.57;102066.50;4999148;28;103960;-47
2022/05/07 05:21:08;;;;;;;3.50;2.88;;;;;;;14.78;58.19;102074.44;5013716;28;102392;-48
2022/05/07 05:23:52;;;;;;;5.53;3.20;;;;;;;14.82;57.99;102081.06;5011334;28;103053;-47
2022/05/07 05:26:21;;;;;;;3.95;2.80;;;;;;;14.82;58.21;102081.06;4995988;28;101956;-47
2022/05/07 05:28:48;;;;;;;3.70;2.75;;;;;;;14.85;57.92;102079.69;5002728;28;103679;-47
2022/05/07 05:31:18;;;;;;;5.20;2.88;;;;;;;14.85;57.93;102085.97;5006828;28;102408;-47
2022/05/07 05:33:50;;;;;;;5.05;2.78;;;;;;;14.86;57.62;102092.31;5014887;28;102311;-47
2022/05/07 05:36:21;;;;;;;2.95;2.58;;;;;;;14.87;57.83;102088.47;5011856;28;102053;-47
2022/05/07 05:38:55;;;;;;;3.85;2.72;;;;;;;14.88;58.31;102090.09;5010750;28;104003;-48
2022/05/07 05:41:28;;;;;;;3.83;2.50;;;;;;;14.89;57.99;102092.59;5008176;28;102017;-48
2022/05/07 05:43:58;;;;;;;4.20;3.15;;;;;;;14.93;58.09;102098.38;4999730;28;102327;-47
2022/05/07 05:46:32;;;;;;;4.53;2.83;;;;;;;14.94;57.77;102091.78;4993938;28;102500;-47
2022/05/07 05:48:59;;;;;;;3.28;2.50;;;;;;;14.96;57.81;102097.00;4997109;28;105072;-47
2022/05/07 05:51:33;;;;;;;5.85;2.85;;;;;;;14.96;57.88;102095.06;5002484;28;102545;-49
2022/05/07 05:54:08;;;;;;;2.53;2.33;;;;;;;14.98;57.77;102098.38;5010343;28;102214;-47
2022/05/07 05:56:37;;;;;;;4.45;2.50;;;;;;;14.97;57.89;102085.78;4999456;28;102264;-47
2022/05/07 05:59:04;;;;;;;4.22;2.80;;;;;;;15.00;57.73;102081.66;5002849;28;103924;-48
2022/05/07 06:01:37;;;;;;;5.97;2.65;;;;;;;15.00;58.02;102093.47;5009596;28;102360;-47
2022/05/07 06:04:12;;;;;;;3.63;2.50;;;;;;;15.01;57.80;102092.38;5002823;28;102717;-47
2022/05/07 06:06:41;;;;;;;5.75;3.00;;;;;;;15.02;58.06;102096.75;5007404;28;102071;-48
2022/05/07 06:09:11;;;;;;;3.80;2.72;;;;;;;15.03;57.78;102086.59;5005246;28;104100;-47
2022/05/07 06:11:41;;;;;;;4.32;2.78;;;;;;;15.04;57.98;102091.84;5013246;28;102492;-48
2022/05/07 06:14:16;;;;;;;5.15;2.60;;;;;;;15.04;57.97;102080.88;5011317;28;102094;-48
2022/05/07 06:16:48;;;;;;;3.53;2.42;;;;;;;15.05;57.80;102085.25;5012398;28;102254;-47
2022/05/07 06:19:17;;;;;;;4.05;2.13;;;;;;;15.05;57.87;102078.94;5009883;28;103823;-45
2022/05/07 06:21:48;;;;;;;4.50;2.30;;;;;;;15.06;57.44;102086.91;5010684;28;102363;-48
2022/05/07 06:27:33;;;;;;;6.82;2.10;;;;;;;15.08;57.85;102100.34;5008321;28;102425;-48
2022/05/07 06:30:02;;;;;;;5.57;2.15;;;;;;;15.10;57.78;102101.72;5007813;28;103856;-48
2022/05/07 06:32:42;;;;;;;4.55;2.47;;;;;;;15.10;57.84;102098.16;5011243;28;102108;-47
2022/05/07 06:35:25;;;;;;;2.63;2.33;;;;;;;15.11;57.30;102100.66;5011447;28;102388;-47
2022/05/07 06:37:54;;;;;;;2.97;2.20;;;;;;;15.11;57.69;102106.13;5013435;28;102507;-47
2022/05/07 06:40:20;;;;;;;;;;;;;;;15.11;57.80;102111.63;5012067;28;104069;-46
2022/05/07 06:42:48;;;;;;;2.88;2.20;;;;;;;15.13;57.41;102103.09;5007298;28;102552;-47
2022/05/07 06:45:25;;;;;;;2.70;2.15;;;;;;;15.14;57.99;102105.56;5011318;28;102362;-48
2022/05/07 06:48:08;;;;;;;3.28;2.22;;;;;;;15.14;57.69;102100.09;5010456;28;102488;-48
2022/05/07 06:50:47;;;;;;;3.50;2.25;;;;;;;15.16;57.66;102101.75;5010378;28;103652;-47
2022/05/07 06:53:15;;;;;;;2.88;2.17;;;;;;;15.17;57.48;102114.38;5007278;28;101885;-48
2022/05/07 06:56:02;;;;;;;3.92;2.28;;;;;;;15.17;57.76;102111.63;5007583;28;103190;-47
2022/05/07 06:58:41;;;;;;;4.75;2.38;;;;;;;15.18;57.56;102116.00;5005464;28;103004;-47
2022/05/07 07:01:09;;;;;;;2.85;2.50;;;;;;;15.18;57.21;102105.03;5002881;28;103892;-48
2022/05/07 07:03:43;;;;;;;2.20;1.90;;;;;;;15.19;57.64;102121.22;4998950;28;102262;-48
2022/05/07 07:06:10;;;;;;;3.33;2.10;;;;;;;15.19;57.09;102113.00;5011455;28;102521;-47
2022/05/07 07:08:39;;;;;;;3.58;2.30;;;;;;;15.21;57.21;102107.25;5012629;28;102837;-48
2022/05/07 07:11:13;;;;;;;2.65;2.10;;;;;;;15.21;57.04;102113.53;4991867;28;103902;-48
2022/05/07 07:13:41;;;;;;;3.70;2.10;;;;;;;15.22;56.99;102111.63;4991648;28;102172;-48
2022/05/07 07:16:08;;;;;;;6.80;2.40;;;;;;;15.22;57.18;102117.13;5001427;28;102068;-48
2022/05/07 07:18:39;;;;;;;3.75;2.60;;;;;;;15.22;57.20;102112.47;5000044;28;102341;-48
2022/05/07 07:21:16;;;;;;;2.63;2.13;;;;;;;15.24;57.00;102114.94;5010969;28;103884;-48
2022/05/07 07:23:46;;;;;;;4.60;2.40;;;;;;;15.25;56.82;102116.56;5010826;28;102400;-48
2022/05/07 07:26:15;;;;;;;4.45;2.28;;;;;;;15.25;56.94;102117.41;4991507;28;102465;-48
2022/05/07 07:28:42;;;;;;;2.20;1.70;;;;;;;15.26;56.94;102112.75;4993015;28;102473;-47
2022/05/07 07:31:11;;;;;;;5.07;2.25;;;;;;;15.25;57.07;102111.09;4991268;28;103903;-47
2022/05/07 07:33:41;;;;;;;3.92;2.00;;;;;;;15.26;56.55;102112.75;4989985;28;102507;-47
2022/05/07 07:36:14;;;;;;;2.88;2.00;;;;;;;15.28;56.42;102116.03;4991623;28;102381;-48
2022/05/07 07:38:40;;;;;;;3.35;1.98;;;;;;;15.28;56.45;102110.56;4992096;28;102247;-48
2022/05/07 07:41:18;;;;;;;4.43;2.13;;;;;;;15.29;56.56;102106.72;4991249;28;103939;-47
2022/05/07 07:43:47;;;;;;;5.87;1.80;;;;;;;15.29;56.22;102112.19;4991787;28;102267;-48
2022/05/07 07:49:00;;;;;;;3.08;1.85;;;;;;;15.28;56.58;102105.91;4992177;28;102226;-47
2022/05/07 07:51:28;;;;;;;2.95;1.60;;;;;;;15.28;56.38;102105.06;4990928;28;103911;-48
2022/05/07 07:53:55;;;;;;;4.85;2.05;;;;;;;15.30;56.37;102108.38;4991283;28;101780;-49
2022/05/07 07:56:29;;;;;;;4.93;1.80;;;;;;;15.30;56.05;102100.16;4991030;28;101900;-48
2022/05/07 07:59:07;;;;;;;4.65;2.00;;;;;;;15.30;56.48;102109.22;5005140;28;102238;-48
2022/05/07 08:01:39;;;;;;;4.40;2.08;;;;;;;15.31;56.44;102116.34;5010616;28;103896;-48
2022/05/07 08:04:06;;;;;;;5.35;1.95;;;;;;;15.31;56.31;102102.63;5010595;28;102393;-45
2022/05/07 08:06:34;;;;;;;3.83;1.80;;;;;;;15.32;56.00;102106.19;5010668;28;102247;-45
2022/05/07 08:12:01;;;;;;;5.00;1.77;;;;;;;15.33;56.33;102105.09;5010546;28;103932;-47
2022/05/07 08:14:30;;;;;;;3.80;1.77;;;;;;;15.33;56.20;102107.84;5002857;28;102779;-48
2022/05/07 08:17:00;;;;;;;3.00;2.08;;;;;;;15.34;55.92;102109.50;5001385;28;102555;-47
2022/05/07 08:19:33;;;;;;;2.03;1.58;;;;;;;15.35;56.44;102105.66;5006279;28;102728;-48
2022/05/07 08:22:20;;;;;;;2.13;1.70;;;;;;;15.34;56.51;102110.31;4993732;28;103853;-48
2022/05/07 08:24:48;;;;;;;3.50;2.10;;;;;;;15.34;56.73;102114.97;4999264;28;102389;-46
2022/05/07 08:27:17;;;;;;;3.65;1.88;;;;;;;15.35;56.50;102111.13;5002931;28;102608;-47
2022/05/07 08:29:45;;;;;;;;;;;;;;;15.35;56.36;102111.97;4999194;28;102624;-47
2022/05/07 08:32:17;;;;;;;2.85;1.92;;;;;;;15.35;56.37;102100.16;4988947;28;104573;-48
2022/05/07 08:34:45;;;;;;;2.22;1.65;;;;;;;15.35;56.35;102094.69;4990076;28;101967;-48
2022/05/07 08:37:13;;;;;;;6.75;1.88;;;;;;;15.36;56.68;102101.81;4989258;28;102458;-48
2022/05/07 08:39:39;;;;;;;2.70;1.90;;;;;;;15.37;56.71;102100.72;4990977;28;102501;-48
2022/05/07 08:42:09;;;;;;;3.55;1.80;;;;;;;15.37;56.73;102103.47;4999981;28;103876;-48
2022/05/07 08:44:37;;;;;;;3.50;1.98;;;;;;;15.36;56.83;102107.28;4995834;28;101888;-47
2022/05/07 08:49:50;;;;;;;3.33;1.77;;;;;;;15.37;56.50;102092.50;5014118;28;101995;-47
2022/05/07 08:52:19;;;;;;;4.75;2.15;;;;;;;15.35;56.36;102090.00;5012686;28;103977;-46
2022/05/07 08:54:45;;;;;;;2.35;2.10;;;;;;;15.36;56.60;102093.56;5013653;28;102313;-47
2022/05/07 08:57:18;;;;;;;3.50;1.83;;;;;;;15.37;56.49;102092.50;5014590;28;102005;-49
2022/05/07 08:59:56;;;;;;;4.18;2.40;;;;;;;15.36;56.24;102088.09;5021704;27;102448;-47
2022/05/07 09:02:52;;;;;;;3.08;2.00;;;;;;;15.36;56.96;102085.34;4997407;28;103861;-45
2022/05/07 09:05:23;;;;;;;6.18;2.30;;;;;;;15.36;56.35;102077.13;4998500;28;102525;-48
2022/05/07 09:07:58;;;;;;;6.25;2.17;;;;;;;15.37;56.27;102082.34;5006802;28;102238;-48
2022/05/07 09:10:33;;;;;;;3.47;2.10;;;;;;;15.37;56.14;102081.53;5013494;28;102560;-49
2022/05/07 09:13:15;;;;;;;8.45;2.05;;;;;;;15.37;56.23;102087.00;4999042;28;103897;-47
2022/05/07 09:16:02;;;;;;;16.27;2.33;;;;;;;15.37;56.04;102076.84;5006017;28;102306;-45
2022/05/07 09:18:32;;;;;;;18.45;2.78;;;;;;;15.34;53.79;102076.56;5000730;28;102447;-47
2022/05/07 09:21:25;;;;;;;6.50;2.88;;;;;;;15.31;53.00;102085.34;5011250;28;102490;-47
2022/05/07 09:24:07;;;;;;;60.85;4.43;;;;;;;15.30;53.34;102091.94;5010866;28;104131;-46
2022/05/07 09:26:39;;;;;;;22.67;3.53;;;;;;;15.32;52.03;102079.56;5013436;28;101955;-47
2022/05/07 09:29:12;;;;;;;13.10;3.13;;;;;;;15.27;52.42;102074.09;5010725;28;102364;-47
2022/05/07 09:31:48;;;;;;;12.05;3.08;;;;;;;15.27;52.71;102089.72;4994550;28;103065;-48
2022/05/07 09:37:34;;;;;;;5.97;2.28;;;;;;;15.25;52.49;102080.94;4993351;28;102459;-48
2022/05/07 09:40:04;;;;;;;14.82;3.08;;;;;;;15.27;50.91;102086.97;5009436;28;102396;-51
2022/05/07 09:42:32;;;;;;;10.18;2.60;;;;;;;15.26;52.66;102074.38;5013617;28;102733;-48
2022/05/07 09:45:01;;;;;;;9.82;3.22;;;;;;;15.27;51.59;102076.00;5012304;28;103894;-48
2022/05/07 09:47:50;;;;;;;5.10;2.75;;;;;;;15.24;51.92;102066.41;5012342;28;102279;-49
2022/05/07 09:50:24;;;;;;;6.22;2.50;;;;;;;15.22;52.62;102073.22;5011076;28;102516;-46
2022/05/07 09:58:33;;;;;;;5.72;2.30;;;;;;;15.23;51.38;102072.16;4994748;28;102528;-48
2022/05/07 10:01:25;;;;;;;5.97;2.60;;;;;;;15.21;52.86;102060.63;4997120;28;101894;-48
2022/05/07 10:04:06;;;;;;;3.83;2.33;;;;;;;15.20;51.41;102075.44;4996074;28;102079;-47
2022/05/07 10:06:45;;;;;;;7.00;2.70;;;;;;;15.26;50.54;102058.72;4991865;28;103730;-48
2022/05/07 10:09:28;;;;;;;4.47;2.60;;;;;;;15.24;49.08;102054.59;4992559;28;102202;-48
2022/05/07 10:11:57;;;;;;;8.48;2.55;;;;;;;15.22;51.03;102051.28;5005836;28;102521;-47
2022/05/07 10:14:32;;;;;;;5.85;2.67;;;;;;;15.19;51.10;102058.16;4993097;28;102337;-49
2022/05/07 10:17:01;;;;;;;5.25;2.28;;;;;;;15.18;50.49;102055.66;4991515;28;103824;-47
2022/05/07 10:19:49;;;;;;;11.13;2.30;;;;;;;15.17;51.23;102054.03;4992459;28;101739;-47
2022/05/07 10:25:19;;;;;;;10.35;2.47;;;;;;;15.18;49.61;102039.22;5001520;28;102386;-48
2022/05/07 10:28:09;;;;;;;6.32;2.47;;;;;;;15.12;49.96;102041.97;4994725;28;103992;-47
2022/05/07 10:30:46;;;;;;;7.45;2.20;;;;;;;15.26;46.28;102038.72;4992551;28;102462;-47
2022/05/07 10:33:13;;;;;;;5.07;2.15;;;;;;;15.19;48.72;102036.22;4997910;28;102099;-48
2022/05/07 10:35:43;;;;;;;2.85;2.05;;;;;;;15.19;49.03;102029.91;5012560;28;102109;-47
2022/05/07 10:38:11;;;;;;;3.58;2.30;;;;;;;15.17;48.55;102027.44;4991533;28;103844;-48
2022/05/07 10:40:48;;;;;;;8.35;2.33;;;;;;;15.16;49.04;102035.94;4992009;28;102238;-47
2022/05/07 10:43:36;;;;;;;4.75;2.30;;;;;;;15.12;49.30;102025.50;5003435;28;102036;-48
2022/05/07 10:46:15;;;;;;;17.17;3.10;;;;;;;15.14;48.28;102017.81;5000305;28;102054;-46
2022/05/07 10:51:32;;;;;;;6.03;2.17;;;;;;;15.12;49.43;102020.03;4991522;28;101968;-47
2022/05/07 10:54:05;;;;;;;;;;;;;;;15.12;49.88;102013.72;5003483;28;101937;-47
2022/05/07 10:56:34;;;;;;;6.07;2.35;;;;;;;15.11;49.57;102023.03;5012653;28;102424;-48
2022/05/07 10:59:01;;;;;;;2.63;1.95;;;;;;;15.11;49.75;102017.53;5010984;28;103921;-47
2022/05/07 11:01:43;;;;;;;4.28;2.20;;;;;;;15.11;49.93;102017.53;5011275;28;101944;-48
2022/05/07 11:04:14;;;;;;;7.35;2.28;;;;;;;15.12;49.76;102021.94;4999891;28;103897;-48
2022/05/07 11:06:50;;;;;;;4.03;1.88;;;;;;;15.16;49.19;102000.28;5011619;28;101988;-45
2022/05/07 11:09:19;;;;;;;4.68;2.20;;;;;;;15.13;49.87;102018.91;5003038;28;104045;-48
2022/05/07 11:11:51;;;;;;;5.93;1.80;;;;;;;15.13;49.11;102015.34;4996538;28;102600;-48
2022/05/07 11:14:28;;;;;;;11.20;2.30;;;;;;;15.14;50.32;102011.50;5000877;28;102129;-46
2022/05/07 11:16:56;;;;;;;6.85;2.10;;;;;;;15.13;50.09;102010.69;4998059;28;102091;-47
2022/05/07 11:19:34;;;;;;;8.65;2.15;;;;;;;15.12;50.06;102005.50;5002808;28;103883;-47
2022/05/07 11:22:08;;;;;;;3.13;1.95;;;;;;;15.14;49.96;102006.84;5003825;28;102062;-48
2022/05/07 11:24:34;;;;;;;5.95;1.70;;;;;;;15.12;49.71;102002.75;4991875;28;102564;-47
2022/05/07 11:27:11;;;;;;;5.20;1.85;;;;;;;15.13;48.67;101994.25;5012059;28;101897;-48
2022/05/07 11:29:39;;;;;;;7.93;1.90;;;;;;;15.14;47.13;102001.38;5006979;28;103870;-48
2022/05/07 11:32:09;;;;;;;4.50;2.15;;;;;;;15.14;46.74;102006.84;5010831;28;102625;-47
2022/05/07 11:34:42;;;;;;;5.60;1.88;;;;;;;15.12;48.24;101987.13;5011021;28;102333;-47
2022/05/07 11:37:15;;;;;;;13.93;2.10;;;;;;;15.14;48.87;101984.09;5011271;28;102051;-46
2022/05/07 11:39:54;;;;;;;15.32;2.38;;;;;;;15.13;48.95;101983.28;5010487;28;103850;-50
2022/05/07 11:42:47;;;;;;;10.40;1.77;;;;;;;15.20;48.80;101982.19;5012387;28;102504;-48
2022/05/07 11:45:27;;;;;;;8.65;2.03;;;;;;;15.14;49.52;101973.94;4994590;28;101944;-48
2022/05/07 11:48:24;;;;;;;7.55;2.42;;;;;;;15.13;50.06;101972.31;5007938;28;102177;-48
2022/05/07 11:50:53;;;;;;;6.30;2.30;;;;;;;15.12;50.62;101967.94;5008165;28;104028;-47
2022/05/07 11:53:26;;;;;;;;;;;;;;;15.12;50.45;101970.66;5003765;28;102295;-47
2022/05/07 11:56:06;;;;;;;5.50;2.03;;;;;;;15.12;50.98;101965.19;4991089;28;101851;-47
2022/05/07 11:58:52;;;;;;;3.42;1.80;;;;;;;15.13;51.23;101969.56;5011491;28;102128;-46
2022/05/07 12:01:24;;;;;;;4.53;1.55;;;;;;;15.12;50.78;101956.97;5008096;28;104074;-48
2022/05/07 12:03:57;;;;;;;5.47;2.28;;;;;;;15.12;51.43;101959.69;5009169;28;102291;-48
2022/05/07 12:06:25;;;;;;;3.28;1.88;;;;;;;15.12;51.43;101959.69;5012143;27;102146;-48
2022/05/07 12:08:54;;;;;;;2.58;1.67;;;;;;;15.12;51.21;101948.72;5009729;28;102374;-49
2022/05/07 12:11:22;;;;;;;3.72;1.77;;;;;;;15.12;51.37;101946.00;5010076;28;103897;-48
2022/05/07 12:13:50;;;;;;;2.83;1.52;;;;;;;15.12;51.61;101947.91;5011134;28;102206;-45
2022/05/07 12:19:09;;;;;;;2.80;1.70;;;;;;;15.12;51.90;101940.50;5000343;28;102058;-47